SWR2PH LOWG-LSZH
Flight info
| Callsign | SWR2PH |
|---|---|
| Flight time | N/A |
| Altitude | 30000 |
| Route | ABIRI DCT ERKIR L608 KPT L856 NEGRA |
| Aircraft | A21N/M-SDE2E3FGHIJ1RWXY/LB1 |
Departure
| Time | 2026-04-26 16:26 |
|---|---|
| Airport | Graz Airport (LOWG) |
Arrival
| Time | N/A |
|---|---|
| Airport | Zürich Airport (LSZH) |
| Time | Latitude | Longitude | Altitude | Speed | Heading |
|---|---|---|---|---|---|
| 2026-04-26 15:55 | 46.99759 | 15.44375 | 1120 ft | 0 kts | 169° |
| 2026-04-26 16:22 | 46.99758 | 15.44375 | 1120 ft | 0 kts | 169° |
| 2026-04-26 16:22 | 46.99751 | 15.44361 | 1120 ft | 3 kts | 267° |
| 2026-04-26 16:23 | 46.99762 | 15.44304 | 1115 ft | 9 kts | 284° |
| 2026-04-26 16:23 | 46.99783 | 15.44208 | 1114 ft | 13 kts | 305° |
| 2026-04-26 16:23 | 46.99872 | 15.44157 | 1122 ft | 15 kts | 351° |
| 2026-04-26 16:23 | 46.99982 | 15.44129 | 1118 ft | 17 kts | 348° |
| 2026-04-26 16:24 | 47.00101 | 15.44092 | 1121 ft | 18 kts | 348° |
| 2026-04-26 16:24 | 47.00241 | 15.44051 | 1124 ft | 22 kts | 349° |
| 2026-04-26 16:24 | 47.00337 | 15.43972 | 1124 ft | 16 kts | 313° |
| 2026-04-26 16:24 | 47.00401 | 15.43833 | 1136 ft | 17 kts | 302° |
| 2026-04-26 16:25 | 47.00440 | 15.43719 | 1134 ft | 9 kts | 276° |
| 2026-04-26 16:25 | 47.00407 | 15.43619 | 1135 ft | 14 kts | 199° |
| 2026-04-26 16:25 | 47.00303 | 15.43634 | 1132 ft | 25 kts | 169° |
| 2026-04-26 16:25 | 46.99875 | 15.43754 | 1114 ft | 100 kts | 167° |
| 2026-04-26 16:26 | 46.98994 | 15.43996 | 1111 ft | 153 kts | 168° |
| 2026-04-26 16:26 | 46.98253 | 15.44193 | 1297 ft | 163 kts | 168° |
| 2026-04-26 16:26 | 46.97995 | 15.44255 | 1412 ft | 165 kts | 168° |
| 2026-04-26 16:26 | 46.96849 | 15.44515 | 1996 ft | 168 kts | 166° |
| 2026-04-26 16:27 | 46.95702 | 15.44929 | 2622 ft | 173 kts | 161° |
| 2026-04-26 16:27 | 46.94483 | 15.45199 | 3243 ft | 184 kts | 181° |
| 2026-04-26 16:27 | 46.93271 | 15.44500 | 3879 ft | 194 kts | 211° |
| 2026-04-26 16:27 | 46.92203 | 15.43265 | 4618 ft | 196 kts | 221° |
| 2026-04-26 16:28 | 46.91444 | 15.41622 | 5265 ft | 199 kts | 246° |
| 2026-04-26 16:28 | 46.90841 | 15.39730 | 5804 ft | 212 kts | 247° |
| 2026-04-26 16:28 | 46.90180 | 15.37721 | 6269 ft | 229 kts | 247° |
| 2026-04-26 16:28 | 46.89462 | 15.35574 | 6831 ft | 239 kts | 248° |
| 2026-04-26 16:29 | 46.88723 | 15.33388 | 7606 ft | 241 kts | 246° |
| 2026-04-26 16:29 | 46.87981 | 15.31201 | 8448 ft | 239 kts | 247° |
| 2026-04-26 16:29 | 46.87322 | 15.28978 | 9266 ft | 237 kts | 258° |
| 2026-04-26 16:29 | 46.87213 | 15.26602 | 10017 ft | 236 kts | 279° |
| 2026-04-26 16:30 | 46.87640 | 15.24278 | 10681 ft | 238 kts | 289° |
| 2026-04-26 16:30 | 46.88190 | 15.21983 | 11344 ft | 241 kts | 290° |
| 2026-04-26 16:30 | 46.88739 | 15.19654 | 11971 ft | 243 kts | 289° |
| 2026-04-26 16:30 | 46.89281 | 15.17297 | 12612 ft | 247 kts | 289° |
| 2026-04-26 16:31 | 46.89823 | 15.14898 | 13275 ft | 251 kts | 290° |
| 2026-04-26 16:31 | 46.90365 | 15.12456 | 13947 ft | 254 kts | 290° |
| 2026-04-26 16:31 | 46.90911 | 15.09985 | 14544 ft | 257 kts | 290° |
| 2026-04-26 16:31 | 46.91459 | 15.07493 | 15127 ft | 258 kts | 290° |
| 2026-04-26 16:32 | 46.92011 | 15.04975 | 15673 ft | 262 kts | 290° |
| 2026-04-26 16:32 | 46.92380 | 15.03286 | 16028 ft | 265 kts | 290° |
| 2026-04-26 16:32 | 46.93136 | 14.99823 | 16775 ft | 270 kts | 290° |
| 2026-04-26 16:32 | 46.93705 | 14.97196 | 17355 ft | 272 kts | 290° |
| 2026-04-26 16:33 | 46.94283 | 14.94536 | 17917 ft | 275 kts | 290° |
| 2026-04-26 16:33 | 46.94868 | 14.91847 | 18451 ft | 280 kts | 289° |
| 2026-04-26 16:33 | 46.95462 | 14.89120 | 18900 ft | 283 kts | 289° |
| 2026-04-26 16:33 | 46.96062 | 14.86362 | 19365 ft | 285 kts | 289° |
| 2026-04-26 16:34 | 46.96666 | 14.83580 | 19786 ft | 291 kts | 289° |
| 2026-04-26 16:34 | 46.97292 | 14.80695 | 20019 ft | 304 kts | 289° |
| 2026-04-26 16:34 | 46.97941 | 14.77706 | 20360 ft | 311 kts | 289° |
| 2026-04-26 16:34 | 46.98598 | 14.74665 | 20829 ft | 315 kts | 288° |
| 2026-04-26 16:35 | 46.99261 | 14.71596 | 21334 ft | 317 kts | 288° |
| 2026-04-26 16:35 | 46.99927 | 14.68514 | 21862 ft | 319 kts | 288° |
| 2026-04-26 16:35 | 47.00584 | 14.65449 | 22371 ft | 321 kts | 288° |
| 2026-04-26 16:35 | 47.01255 | 14.62318 | 22878 ft | 323 kts | 288° |
| 2026-04-26 16:36 | 47.01932 | 14.59165 | 23380 ft | 326 kts | 288° |
| 2026-04-26 16:36 | 47.02612 | 14.55986 | 23836 ft | 328 kts | 287° |
| 2026-04-26 16:36 | 47.03295 | 14.52782 | 24250 ft | 330 kts | 287° |
| 2026-04-26 16:36 | 47.03980 | 14.49558 | 24678 ft | 332 kts | 288° |
| 2026-04-26 16:37 | 47.04666 | 14.46321 | 25107 ft | 333 kts | 288° |
| 2026-04-26 16:37 | 47.05357 | 14.43073 | 25520 ft | 335 kts | 288° |
| 2026-04-26 16:37 | 47.06050 | 14.39809 | 25937 ft | 336 kts | 288° |
| 2026-04-26 16:37 | 47.06520 | 14.37595 | 26198 ft | 337 kts | 288° |
| 2026-04-26 16:38 | 47.07445 | 14.33233 | 26698 ft | 340 kts | 288° |
| 2026-04-26 16:38 | 47.08143 | 14.29914 | 27077 ft | 341 kts | 288° |
| 2026-04-26 16:38 | 47.08848 | 14.26580 | 27455 ft | 343 kts | 288° |
| 2026-04-26 16:38 | 47.09558 | 14.23219 | 27718 ft | 348 kts | 288° |
| 2026-04-26 16:39 | 47.10281 | 14.19783 | 27872 ft | 356 kts | 288° |
| 2026-04-26 16:39 | 47.11020 | 14.16263 | 27999 ft | 365 kts | 288° |
| 2026-04-26 16:39 | 47.11772 | 14.12659 | 28122 ft | 374 kts | 287° |
| 2026-04-26 16:39 | 47.12541 | 14.08970 | 28242 ft | 382 kts | 287° |
| 2026-04-26 16:40 | 47.13328 | 14.05200 | 28362 ft | 390 kts | 287° |
| 2026-04-26 16:40 | 47.14132 | 14.01348 | 28471 ft | 398 kts | 287° |
| 2026-04-26 16:40 | 47.14947 | 13.97429 | 28685 ft | 404 kts | 287° |
| 2026-04-26 16:40 | 47.15768 | 13.93469 | 29004 ft | 407 kts | 287° |
| 2026-04-26 16:41 | 47.16594 | 13.89483 | 29345 ft | 409 kts | 287° |
| 2026-04-26 16:41 | 47.17141 | 13.86835 | 29605 ft | 409 kts | 287° |
| 2026-04-26 16:41 | 47.17963 | 13.82842 | 30036 ft | 407 kts | 287° |
| 2026-04-26 16:41 | 47.18782 | 13.78861 | 30160 ft | 407 kts | 287° |
| 2026-04-26 16:42 | 47.20414 | 13.70906 | 30165 ft | 405 kts | 287° |
| 2026-04-26 16:42 | 47.22039 | 13.62958 | 30159 ft | 406 kts | 287° |
| 2026-04-26 16:43 | 47.23661 | 13.55012 | 30154 ft | 405 kts | 286° |
| 2026-04-26 16:43 | 47.25270 | 13.47064 | 30161 ft | 406 kts | 286° |
| 2026-04-26 16:44 | 47.26882 | 13.39097 | 30168 ft | 406 kts | 286° |
| 2026-04-26 16:44 | 47.28489 | 13.31122 | 30171 ft | 406 kts | 286° |
| 2026-04-26 16:45 | 47.30110 | 13.23024 | 30187 ft | 421 kts | 286° |
| 2026-04-26 16:45 | 47.31790 | 13.14576 | 30188 ft | 438 kts | 286° |
| 2026-04-26 16:46 | 47.33509 | 13.05911 | 30165 ft | 441 kts | 285° |
| 2026-04-26 16:46 | 47.35212 | 12.97230 | 30164 ft | 440 kts | 286° |
| 2026-04-26 16:47 | 47.36924 | 12.88542 | 30161 ft | 442 kts | 285° |
| 2026-04-26 16:47 | 47.38633 | 12.79830 | 30169 ft | 442 kts | 285° |
| 2026-04-26 16:48 | 47.40337 | 12.71133 | 30170 ft | 442 kts | 285° |
| 2026-04-26 16:48 | 47.42026 | 12.62411 | 30177 ft | 441 kts | 285° |
| 2026-04-26 16:49 | 47.43714 | 12.53693 | 30169 ft | 442 kts | 285° |
| 2026-04-26 16:49 | 47.45401 | 12.44952 | 30175 ft | 442 kts | 285° |
| 2026-04-26 16:50 | 47.47072 | 12.36212 | 30171 ft | 442 kts | 285° |
| 2026-04-26 16:50 | 47.48739 | 12.27469 | 30173 ft | 441 kts | 285° |
| 2026-04-26 16:51 | 47.50396 | 12.18723 | 30178 ft | 442 kts | 285° |
| 2026-04-26 16:51 | 47.52049 | 12.09974 | 30177 ft | 442 kts | 285° |
| 2026-04-26 16:52 | 47.53423 | 12.02693 | 30173 ft | 442 kts | 285° |
| 2026-04-26 16:52 | 47.54981 | 11.92313 | 30173 ft | 442 kts | 281° |
| 2026-04-26 16:53 | 47.56234 | 11.83399 | 30169 ft | 442 kts | 281° |
| 2026-04-26 16:53 | 47.57461 | 11.74610 | 30151 ft | 420 kts | 281° |
| 2026-04-26 16:54 | 47.58037 | 11.70458 | 30139 ft | 407 kts | 281° |
| 2026-04-26 16:54 | 47.58602 | 11.66363 | 30149 ft | 405 kts | 281° |
| 2026-04-26 16:54 | 47.59733 | 11.58185 | 30165 ft | 405 kts | 281° |
| 2026-04-26 16:55 | 47.60856 | 11.50006 | 30164 ft | 405 kts | 281° |
| 2026-04-26 16:55 | 47.61965 | 11.41815 | 30167 ft | 405 kts | 281° |